M I D A S
Marine Information and Data Acquisition System
Tripno 1491 of the Zeeleeuw from 2008-05-23 06:41:36 to 2008-05-23 13:12:48
Back to CruiseResearch ActivitiesStationsMapUnderway DataData graphs

EquipmentUnitsComments
TimeDGPSUTC
LatitudeDGPSDM.mWGS84
LongitudeDGPSDM.mWGS84
SpeedMeteo Stationm/sRelative wind speed
DirectionMeteo StationdegRelative wind direction
TemperatureMeteo Stationdeg CelciusAir temperature
PressureMeteo StationPaAtmospheric pressure
HumidityMeteo Station%Relative humidity
Missing or incorrect values are displayed as -999
Metereological data collected by the RV Zeeleeuw from 2008-05-23 06:42:27 to 2008-05-23 13:19:42
Time Latitude Longitude Speed Direction Temperature Pressure Humidity
2008-05-23 06:43 51°13.623 2°56.043 -999 -999 -999 -999 -999
2008-05-23 06:44 51°13.641 2°55.964 -999 -999 -999 -999 -999
2008-05-23 06:45 51°13.678 2°55.854 -999 -999 -999 -999 -999
2008-05-23 06:46 51°13.735 2°55.75 -999 -999 -999 -999 -999
2008-05-23 06:47 51°13.802 2°55.669 -999 -999 -999 -999 -999
2008-05-23 06:48 51°13.883 2°55.634 -999 -999 -999 -999 -999
2008-05-23 06:49 51°13.934 2°55.653 -999 -999 -999 -999 -999
2008-05-23 06:50 51°13.974 2°55.555 -999 -999 -999 -999 -999
2008-05-23 06:51 51°14.1 2°55.444 -999 -999 -999 -999 -999
2008-05-23 06:52 51°14.253 2°55.273 -999 -999 -999 -999 -999
2008-05-23 06:53 51°14.39 2°55.041 -999 -999 -999 -999 -999
2008-05-23 06:54 51°14.563 2°54.856 -999 -999 -999 -999 -999
2008-05-23 06:55 51°14.741 2°54.715 -999 -999 -999 -999 -999
2008-05-23 06:56 51°14.919 2°54.564 -999 -999 -999 -999 -999
2008-05-23 06:57 51°15.095 2°54.417 -999 -999 -999 -999 -999
2008-05-23 06:58 51°15.275 2°54.27 6 348 -999 -999 -999
2008-05-23 06:59 51°15.453 2°54.124 6 346 14.7 101340 70
2008-05-23 07:00 51°15.629 2°53.968 6.2 340 14.7 101330 70
2008-05-23 07:01 51°15.806 2°53.813 6.3 346 14.7 101330 71
2008-05-23 07:02 51°15.984 2°53.649 6.5 347 14.7 101340 71
2008-05-23 07:03 51°16.16 2°53.476 5.9 348 14.7 101340 71
2008-05-23 07:04 51°16.333 2°53.291 6 348 14.7 101340 70
2008-05-23 07:05 51°16.506 2°53.108 5.7 350 14.7 101340 71
2008-05-23 07:06 51°16.68 2°52.927 5.6 350 14.7 101340 70
2008-05-23 07:07 51°16.854 2°52.75 4.9 351 14.7 101330 70
2008-05-23 07:08 51°17.027 2°52.573 5.4 351 14.7 101340 71
2008-05-23 07:09 51°17.217 2°52.466 6.9 348 14.7 101330 72
2008-05-23 07:10 51°17.415 2°52.4 6.7 348 14.7 101330 72
2008-05-23 07:11 51°17.615 2°52.353 6.7 346 14.7 101330 72
2008-05-23 07:12 51°17.814 2°52.322 7.2 346 14.7 101330 72
2008-05-23 07:13 51°18.013 2°52.285 6.8 347 14.6 101330 72
2008-05-23 07:14 51°18.21 2°52.225 6.4 349 14.6 101340 72
2008-05-23 07:15 51°18.408 2°52.167 6 348 14.6 101340 71
2008-05-23 07:16 51°18.606 2°52.108 6.2 348 14.7 101340 71
2008-05-23 07:17 51°18.805 2°52.047 6.9 348 14.7 101330 72
2008-05-23 07:18 51°19.004 2°51.99 6.6 349 14.7 101330 72
2008-05-23 07:19 51°19.205 2°51.937 7.2 349 14.7 101340 71
2008-05-23 07:20 51°19.406 2°51.888 6.8 348 14.8 101340 71
2008-05-23 07:21 51°19.608 2°51.844 6.5 348 14.8 101340 72
2008-05-23 07:22 51°19.807 2°51.794 6.2 347 14.8 101340 72
2008-05-23 07:23 51°20.007 2°51.754 6.3 347 14.9 101340 73
2008-05-23 07:24 51°20.209 2°51.729 6.4 349 14.9 101340 73
2008-05-23 07:25 51°20.411 2°51.69 6.4 349 14.9 101340 72
2008-05-23 07:26 51°20.616 2°51.647 7 349 14.9 101340 71
2008-05-23 07:27 51°20.82 2°51.591 6.9 350 15 101340 71
2008-05-23 07:28 51°21.025 2°51.539 6.5 349 15 101340 72
2008-05-23 07:29 51°21.231 2°51.504 6.6 351 15 101340 72
2008-05-23 07:30 51°21.436 2°51.47 6.6 351 15 101330 71
2008-05-23 07:31 51°21.636 2°51.448 7.2 352 15.1 101350 72
2008-05-23 07:32 51°21.835 2°51.419 6.9 350 15.1 101350 72
2008-05-23 07:33 51°22.035 2°51.371 6.4 349 15.1 101340 72
2008-05-23 07:34 51°22.234 2°51.318 6.3 347 15.1 101340 72
2008-05-23 07:35 51°22.436 2°51.277 6.1 350 15.1 101350 71
2008-05-23 07:36 51°22.639 2°51.224 6 349 15.1 101350 71
2008-05-23 07:37 51°22.843 2°51.173 5.5 349 15.1 101350 71
2008-05-23 07:38 51°23.045 2°51.131 6.2 348 15.1 101350 72
2008-05-23 07:39 51°23.246 2°51.088 3.3 346 15.1 101350 72
2008-05-23 07:40 51°23.447 2°51.052 6.7 346 15.1 101350 73
2008-05-23 07:41 51°23.649 2°51.028 6.9 347 15.1 101350 73
2008-05-23 07:42 51°23.852 2°50.988 5.9 348 15 101350 72
2008-05-23 07:43 51°24.055 2°50.938 5.3 348 15 101350 72
2008-05-23 07:44 51°24.258 2°50.884 5.3 346 15 101350 72
2008-05-23 07:45 51°24.459 2°50.827 5.1 347 15.1 101360 72
2008-05-23 07:46 51°24.661 2°50.775 5.9 346 15.1 101360 72
2008-05-23 07:47 51°24.86 2°50.731 5.2 345 15 101360 71
2008-05-23 07:48 51°25.059 2°50.674 5.2 344 15.1 101360 71
2008-05-23 07:49 51°25.258 2°50.621 5.5 344 15.2 101350 72
2008-05-23 07:50 51°25.457 2°50.571 6 346 15.1 101350 72
2008-05-23 07:51 51°25.658 2°50.539 6.3 346 15.1 101360 72
2008-05-23 07:52 51°25.861 2°50.509 6 346 15.1 101360 73
2008-05-23 07:53 51°26.064 2°50.473 5.2 347 15.1 101360 73
2008-05-23 07:54 51°26.265 2°50.434 5.3 344 15.1 101360 72
2008-05-23 07:55 51°26.467 2°50.402 5 345 15.1 101360 73
2008-05-23 07:56 51°26.668 2°50.367 4.8 344 15.1 101360 73
2008-05-23 07:57 51°26.87 2°50.327 5.5 344 15.1 101360 73
2008-05-23 07:58 51°27.069 2°50.276 4.6 344 15.1 101360 73
2008-05-23 07:59 51°27.269 2°50.229 4.5 346 15.1 101370 72
2008-05-23 08:00 51°27.469 2°50.187 4.6 346 15.1 101370 71
2008-05-23 08:01 51°27.672 2°50.146 4.4 347 15.2 101360 71
2008-05-23 08:02 51°27.875 2°50.108 4.5 346 15.1 101360 70
2008-05-23 08:03 51°28.078 2°50.073 4.6 344 15.2 101370 71
2008-05-23 08:04 51°28.278 2°50.045 4.4 343 15.2 101370 71
2008-05-23 08:05 51°28.478 2°50.003 4.6 343 15.2 101360 72
2008-05-23 08:06 51°28.678 2°49.955 5.2 340 15.2 101370 73
2008-05-23 08:07 51°28.879 2°49.92 4.5 342 15.2 101370 74
2008-05-23 08:08 51°29.079 2°49.869 4.4 342 15.2 101370 74
2008-05-23 08:09 51°29.283 2°49.823 5.2 340 15.1 101370 74
2008-05-23 08:10 51°29.486 2°49.78 5.4 340 15.2 101370 75
2008-05-23 08:11 51°29.691 2°49.755 7.2 338 15.2 101370 77
2008-05-23 08:12 51°29.87 2°49.879 9.1 337 15.2 101370 81
2008-05-23 08:13 51°30.02 2°50.076 8.4 338 15.2 101370 83
2008-05-23 08:14 51°30.163 2°50.28 9.1 336 15.1 101370 85
2008-05-23 08:15 51°30.302 2°50.49 9.6 335 15.1 101370 87
2008-05-23 08:16 51°30.41 2°50.742 9.3 337 15 101370 88
2008-05-23 08:17 51°30.521 2°50.994 10.3 336 14.9 101370 89
2008-05-23 08:18 51°30.622 2°51.257 9.2 337 14.9 101370 90
2008-05-23 08:19 51°30.676 2°51.557 8.9 337 14.8 101370 90
2008-05-23 08:20 51°30.733 2°51.855 10.7 333 14.8 101360 90
2008-05-23 08:21 51°30.79 2°52.154 10.5 334 14.9 101370 90
2008-05-23 08:22 51°30.844 2°52.454 9.2 336 14.9 101370 90
2008-05-23 08:23 51°30.885 2°52.759 10.5 335 14.8 101360 89
2008-05-23 08:24 51°30.924 2°53.063 10.1 334 14.7 101370 89
2008-05-23 08:25 51°30.955 2°53.369 8.7 334 14.7 101370 90
2008-05-23 08:26 51°30.991 2°53.671 9.6 333 14.7 101370 90
2008-05-23 08:27 51°31.021 2°53.972 8.4 335 14.7 101370 90
2008-05-23 08:28 51°31.049 2°54.273 7.7 336 14.6 101370 90
2008-05-23 08:29 51°31.073 2°54.575 9.2 335 14.6 101360 90
2008-05-23 08:30 51°31.103 2°54.873 7.9 335 14.6 101370 90
2008-05-23 08:31 51°31.129 2°55.172 9.2 334 14.7 101370 90
2008-05-23 08:32 51°31.157 2°55.471 9.4 336 14.7 101370 90
2008-05-23 08:33 51°31.187 2°55.769 8.8 334 14.6 101370 90
2008-05-23 08:34 51°31.215 2°56.068 9.6 332 14.7 101370 89
2008-05-23 08:35 51°31.246 2°56.366 8 334 14.7 101370 89
2008-05-23 08:36 51°31.276 2°56.664 9.3 334 14.7 101370 89
2008-05-23 08:37 51°31.309 2°56.961 9.2 334 14.7 101370 88
2008-05-23 08:38 51°31.352 2°57.257 9.6 335 14.7 101370 88
2008-05-23 08:39 51°31.437 2°57.52 9.3 337 14.7 101360 86
2008-05-23 08:40 51°31.559 2°57.748 8.2 336 14.8 101360 86
2008-05-23 08:41 51°31.68 2°57.977 8.1 338 14.8 101360 86
2008-05-23 08:42 51°31.812 2°58.187 9.4 337 14.7 101360 86
2008-05-23 08:43 51°31.941 2°58.405 8.1 336 14.7 101360 86
2008-05-23 08:44 51°32.074 2°58.618 8.9 338 14.7 101370 86
2008-05-23 08:45 51°32.21 2°58.823 9.3 338 14.7 101360 86
2008-05-23 08:46 51°32.344 2°59.03 9 339 14.7 101360 86
2008-05-23 08:47 51°32.501 2°59.186 8.3 340 14.6 101360 86
2008-05-23 08:48 51°32.681 2°59.271 8.4 340 14.6 101370 86
2008-05-23 08:49 51°32.856 2°59.37 8.3 341 14.7 101360 86
2008-05-23 08:50 51°33.027 2°59.487 8.6 339 14.7 101370 87
2008-05-23 08:51 51°33.198 2°59.606 8.4 339 14.7 101370 87
2008-05-23 08:52 51°33.372 2°59.716 8.4 343 14.7 101370 87
2008-05-23 08:53 51°33.541 2°59.833 7.9 340 14.7 101360 88
2008-05-23 08:54 51°33.711 2°59.961 7.9 341 14.7 101360 88
2008-05-23 08:55 51°33.88 3°0.084 8.4 339 14.7 101370 89
2008-05-23 08:56 51°34.053 3°0.187 7.8 338 14.7 101360 89
2008-05-23 08:57 51°34.238 3°0.227 7.3 342 14.6 101370 90
2008-05-23 08:58 51°34.428 3°0.237 7.1 341 14.6 101370 90
2008-05-23 08:59 51°34.617 3°0.198 6 343 14.6 101370 90
2008-05-23 09:00 51°34.789 3°0.031 5.5 341 14.5 101370 90
2008-05-23 09:01 51°34.956 2°59.84 5.9 343 14.5 101370 90
2008-05-23 09:02 51°35.119 2°59.637 6.5 341 14.5 101370 90
2008-05-23 09:03 51°35.282 2°59.431 5.7 341 14.5 101370 90
2008-05-23 09:04 51°35.431 2°59.205 6.3 341 14.5 101370 89
2008-05-23 09:05 51°35.551 2°58.932 4.4 340 14.5 101370 89
2008-05-23 09:06 51°35.551 2°58.58 3.7 332 14.5 101370 89
2008-05-23 09:07 51°35.46 2°58.247 3.4 320 14.5 101370 89
2008-05-23 09:08 51°35.34 2°57.928 3 325 14.5 101380 89
2008-05-23 09:09 51°35.22 2°57.607 3.3 317 14.6 101380 88
2008-05-23 09:10 51°35.093 2°57.289 4.1 320 14.6 101380 88
2008-05-23 09:11 51°34.97 2°56.968 4.2 322 14.7 101370 88
2008-05-23 09:12 51°34.85 2°56.643 3.5 321 14.7 101380 88
2008-05-23 09:13 51°34.736 2°56.311 3.4 324 14.7 101380 89
2008-05-23 09:14 51°34.617 2°55.984 4.4 324 14.7 101370 89
2008-05-23 09:15 51°34.475 2°55.682 4.6 322 14.7 101370 89
2008-05-23 09:16 51°34.334 2°55.38 4.9 319 14.6 101380 89
2008-05-23 09:17 51°34.191 2°55.076 4.8 325 14.6 101370 90
2008-05-23 09:18 51°34.052 2°54.769 4.5 325 14.6 101370 90
2008-05-23 09:19 51°33.914 2°54.459 4.3 326 14.6 101370 90
2008-05-23 09:20 51°33.776 2°54.149 4.3 324 14.6 101370 90
2008-05-23 09:21 51°33.639 2°53.837 3.8 321 14.6 101370 91
2008-05-23 09:22 51°33.498 2°53.533 5 319 14.6 101370 91
2008-05-23 09:23 51°33.356 2°53.229 5 323 14.6 101380 91
2008-05-23 09:24 51°33.22 2°52.918 4.7 322 14.6 101370 91
2008-05-23 09:25 51°33.081 2°52.612 3.6 320 14.5 101370 91
2008-05-23 09:26 51°32.948 2°52.298 4.6 320 14.5 101380 91
2008-05-23 09:27 51°32.813 2°51.986 3.5 324 14.5 101370 91
2008-05-23 09:28 51°32.672 2°51.681 4.8 323 14.5 101380 91
2008-05-23 09:29 51°32.532 2°51.375 4.9 321 14.5 101380 92
2008-05-23 09:30 51°32.428 2°51.039 4.6 332 14.5 101380 91
2008-05-23 09:31 51°32.384 2°50.675 3.3 330 14.5 101380 91
2008-05-23 09:32 51°32.425 2°50.328 5.1 340 14.4 101380 91
2008-05-23 09:33 51°32.558 2°50.074 5.7 343 14.4 101380 91
2008-05-23 09:34 51°32.723 2°49.884 5.7 343 14.4 101370 91
2008-05-23 09:35 51°32.886 2°49.688 5.3 341 14.4 101370 91
2008-05-23 09:36 51°33.05 2°49.49 6.6 342 14.4 101370 92
2008-05-23 09:37 51°33.216 2°49.295 5.9 343 14.4 101370 92
2008-05-23 09:38 51°33.377 2°49.088 6.8 343 14.3 101380 93
2008-05-23 09:39 51°33.546 2°48.898 5.8 344 14.3 101370 93
2008-05-23 09:40 51°33.726 2°48.749 7.6 344 14.3 101380 93
2008-05-23 09:41 51°33.909 2°48.609 6.5 343 14.2 101370 94
2008-05-23 09:42 51°34.091 2°48.472 7.2 345 14.2 101370 94
2008-05-23 09:43 51°34.274 2°48.356 6.6 344 14.1 101370 95
2008-05-23 09:44 51°34.456 2°48.246 7.6 345 14.1 101380 95
2008-05-23 09:45 51°34.639 2°48.14 6.9 346 14 101370 95
2008-05-23 09:46 51°34.821 2°48.037 8.2 346 14 101370 95
2008-05-23 09:47 51°35.005 2°47.938 8.2 346 13.9 101370 95
2008-05-23 09:48 51°35.187 2°47.848 7.7 344 13.9 101370 95
2008-05-23 09:49 51°35.313 2°48.012 8.5 337 13.9 101370 96
2008-05-23 09:50 51°35.436 2°48.218 8.9 337 13.9 101370 95
2008-05-23 09:51 51°35.56 2°48.429 10.5 335 13.9 101370 95
2008-05-23 09:52 51°35.683 2°48.642 10.1 335 13.9 101370 95
2008-05-23 09:53 51°35.81 2°48.847 9.7 338 13.9 101370 95
2008-05-23 09:54 51°35.933 2°49.052 8.5 335 13.8 101370 95
2008-05-23 09:55 51°36.048 2°49.272 8.6 335 13.8 101370 95
2008-05-23 09:56 51°36.168 2°49.484 9.7 338 13.8 101370 95
2008-05-23 09:57 51°36.29 2°49.69 9 339 13.8 101380 95
2008-05-23 09:58 51°36.408 2°49.904 4.4 337 13.8 101370 94
2008-05-23 09:59 51°36.523 2°50.11 8.8 337 13.8 101370 94
2008-05-23 10:00 51°36.642 2°50.317 9.9 337 13.8 101370 94
2008-05-23 10:01 51°36.758 2°50.529 8.2 337 13.9 101380 93
2008-05-23 10:02 51°36.877 2°50.737 9.2 337 13.9 101370 93
2008-05-23 10:03 51°36.999 2°50.945 8.1 336 13.9 101370 93
2008-05-23 10:04 51°37.12 2°51.153 7.6 337 14 101370 92
2008-05-23 10:05 51°37.253 2°51.332 8.1 337 14 101370 92
2008-05-23 10:06 51°37.425 2°51.409 6.8 338 14 101380 91
2008-05-23 10:07 51°37.61 2°51.383 6.4 341 14 101380 91
2008-05-23 10:08 51°37.787 2°51.259 6.5 340 14 101380 91
2008-05-23 10:09 51°37.958 2°51.098 6.6 340 14 101380 91
2008-05-23 10:10 51°38.12 2°50.905 5.5 341 14 101380 91
2008-05-23 10:11 51°38.285 2°50.721 5.8 341 14 101380 90
2008-05-23 10:12 51°38.452 2°50.542 6.1 343 14 101380 90
2008-05-23 10:13 51°38.62 2°50.363 6.2 343 14 101370 90
2008-05-23 10:14 51°38.786 2°50.188 7.2 343 14 101370 90
2008-05-23 10:15 51°38.956 2°50.029 7.5 344 14 101380 90
2008-05-23 10:16 51°39.122 2°49.864 6.3 344 13.9 101380 89
2008-05-23 10:17 51°39.295 2°49.777 8.7 341 13.9 101370 89
2008-05-23 10:18 51°39.474 2°49.806 7.7 341 14 101370 89
2008-05-23 10:19 51°39.657 2°49.818 8.2 342 14 101370 90
2008-05-23 10:20 51°39.838 2°49.839 7.3 341 14 101370 89
2008-05-23 10:21 51°40.02 2°49.86 7.5 339 14 101360 90
2008-05-23 10:22 51°40.201 2°49.892 7.6 340 14 101370 90
2008-05-23 10:23 51°40.379 2°49.932 8.8 338 13.9 101370 90
2008-05-23 10:24 51°40.557 2°49.974 9.2 335 13.9 101370 90
2008-05-23 10:25 51°40.737 2°50.023 7.9 337 13.9 101370 91
2008-05-23 10:26 51°40.912 2°50.085 9.1 334 13.9 101360 91
2008-05-23 10:27 51°40.942 2°50.34 9.2 324 13.8 101370 91
2008-05-23 10:28 51°40.83 2°50.613 9.1 322 13.9 101370 91
2008-05-23 10:29 51°40.713 2°50.886 7.3 320 13.9 101370 91
2008-05-23 10:30 51°40.604 2°51.163 9.4 320 13.9 101370 91
2008-05-23 10:31 51°40.461 2°51.407 7.1 318 13.9 101370 91
2008-05-23 10:32 51°40.311 2°51.64 7.6 318 13.9 101370 91
2008-05-23 10:33 51°40.166 2°51.879 8.7 321 14 101370 91
2008-05-23 10:34 51°40.031 2°52.129 7.5 318 14 101370 91
2008-05-23 10:35 51°39.901 2°52.38 7.7 319 14 101370 91
2008-05-23 10:36 51°39.768 2°52.626 7.7 318 14 101370 91
2008-05-23 10:37 51°39.631 2°52.869 9.4 317 14 101370 91
2008-05-23 10:38 51°39.497 2°53.118 8.7 317 14 101370 91
2008-05-23 10:39 51°39.36 2°53.362 8.4 318 14 101370 91
2008-05-23 10:40 51°39.227 2°53.61 7.2 318 14 101370 91
2008-05-23 10:41 51°39.093 2°53.857 8.1 319 14 101360 91
2008-05-23 10:42 51°38.955 2°54.1 8.3 316 14 101370 91
2008-05-23 10:43 51°38.816 2°54.344 8 318 14 101370 92
2008-05-23 10:44 51°38.683 2°54.595 7.9 317 14 101360 92
2008-05-23 10:45 51°38.547 2°54.845 8.1 317 14 101370 92
2008-05-23 10:46 51°38.412 2°55.097 7.2 318 14.1 101370 92
2008-05-23 10:47 51°38.26 2°55.333 5.4 319 14.1 101370 92
2008-05-23 10:48 51°38.108 2°55.567 7.4 320 14.1 101370 92
2008-05-23 10:49 51°37.957 2°55.806 7.9 320 14 101370 92
2008-05-23 10:50 51°37.788 2°56.017 5.5 316 14 101370 92
2008-05-23 10:51 51°37.568 2°56.079 5.3 316 14 101370 92
2008-05-23 10:52 51°37.347 2°55.978 3.6 325 14 101370 92
2008-05-23 10:53 51°37.169 2°55.747 4.4 338 14.1 101370 92
2008-05-23 10:54 51°37.065 2°55.425 4.6 341 14.1 101370 92
2008-05-23 10:55 51°36.965 2°55.099 4.8 343 14 101370 92
2008-05-23 10:56 51°36.861 2°54.775 4.6 339 14 101380 92
2008-05-23 10:57 51°36.751 2°54.454 4.2 346 14 101370 92
2008-05-23 10:58 51°36.644 2°54.131 4.4 340 14 101370 92
2008-05-23 10:59 51°36.54 2°53.807 3.4 344 14 101380 92
2008-05-23 11:00 51°36.436 2°53.483 3.4 343 14 101380 91
2008-05-23 11:01 51°36.333 2°53.159 3.1 346 14 101380 91
2008-05-23 11:02 51°36.232 2°52.834 2.7 347 14 101380 91
2008-05-23 11:03 51°36.129 2°52.512 2.2 346 14 101370 90
2008-05-23 11:04 51°35.959 2°52.277 3.2 38 14 101380 91
2008-05-23 11:05 51°35.741 2°52.188 5.6 40 14.1 101370 91
2008-05-23 11:06 51°35.522 2°52.241 6.3 33 14.1 101370 91
2008-05-23 11:07 51°35.309 2°52.337 6.3 232 14.1 101360 90
2008-05-23 11:08 51°35.094 2°52.413 7 36 14.2 101360 90
2008-05-23 11:09 51°34.889 2°52.505 7.7 37 14.2 101350 89
2008-05-23 11:10 51°34.737 2°52.71 8.7 315 14.3 101350 89
2008-05-23 11:11 51°34.678 2°52.985 10.7 323 14.3 101350 89
2008-05-23 11:12 51°34.746 2°53.235 11.6 327 14.4 101340 90
2008-05-23 11:13 51°34.848 2°53.467 11.6 328 14.4 101350 89
2008-05-23 11:14 51°34.938 2°53.711 11.6 325 14.3 101340 90
2008-05-23 11:15 51°35.024 2°53.96 9.5 327 14.3 101350 90
2008-05-23 11:16 51°35.117 2°54.206 11.4 325 14.2 101350 90
2008-05-23 11:17 51°35.202 2°54.461 8.9 326 14.2 101350 90
2008-05-23 11:18 51°35.291 2°54.712 9.4 326 14.2 101350 91
2008-05-23 11:19 51°35.375 2°54.969 10.2 323 14.2 101350 91
2008-05-23 11:20 51°35.459 2°55.226 9.4 323 14.2 101350 92
2008-05-23 11:21 51°35.538 2°55.489 10.3 327 14.2 101350 92
2008-05-23 11:22 51°35.621 2°55.747 9.3 327 14.2 101350 92
2008-05-23 11:23 51°35.704 2°56.006 12.3 329 14.2 101350 92
2008-05-23 11:24 51°35.779 2°56.269 11.2 326 14.1 101350 92
2008-05-23 11:25 51°35.776 2°56.57 11 320 14.1 101340 92
2008-05-23 11:26 51°35.69 2°56.842 9 36 14.1 101340 92
2008-05-23 11:27 51°35.506 2°56.976 4.6 37 14.1 101340 92
2008-05-23 11:28 51°35.298 2°56.882 2.6 37 14.1 101350 92
2008-05-23 11:29 51°35.113 2°56.667 2.2 324 14.2 101350 93
2008-05-23 11:30 51°34.923 2°56.462 2.8 318 14.3 101350 93
2008-05-23 11:31 51°34.73 2°56.268 2.4 40 14.3 101350 93
2008-05-23 11:32 51°34.539 2°56.065 3 321 14.4 101350 92
2008-05-23 11:33 51°34.353 2°55.85 2.1 324 14.5 101350 92
2008-05-23 11:34 51°34.166 2°55.634 2.2 326 14.5 101350 92
2008-05-23 11:35 51°33.975 2°55.431 2.2 316 14.5 101350 91
2008-05-23 11:36 51°33.783 2°55.228 2.7 323 14.6 101350 91
2008-05-23 11:37 51°33.593 2°55.022 3.1 325 14.6 101350 91
2008-05-23 11:38 51°33.403 2°54.82 2.6 326 14.6 101340 91
2008-05-23 11:39 51°33.214 2°54.612 3 323 14.6 101340 91
2008-05-23 11:40 51°33.023 2°54.414 2.5 333 14.7 101340 91
2008-05-23 11:41 51°32.831 2°54.24 3.7 37 14.7 101350 91
2008-05-23 11:42 51°32.645 2°54.368 7.8 39 14.7 101330 90
2008-05-23 11:43 51°32.457 2°54.535 7.7 38 14.6 101330 90
2008-05-23 11:44 51°32.268 2°54.704 8.7 36 14.6 101330 90
2008-05-23 11:45 51°32.077 2°54.868 6.6 38 14.6 101330 91
2008-05-23 11:46 51°31.886 2°55.033 7 34 14.5 101320 91
2008-05-23 11:47 51°31.699 2°55.209 9.4 38 14.5 101320 91
2008-05-23 11:48 51°31.512 2°55.389 7.8 36 14.5 101310 91
2008-05-23 11:49 51°31.319 2°55.554 8.8 32 14.5 101310 91
2008-05-23 11:50 51°31.099 2°55.585 4.6 238 14.5 101320 91
2008-05-23 11:51 51°30.877 2°55.562 3.9 240 14.5 101330 91
2008-05-23 11:52 51°30.663 2°55.495 3.3 237 14.5 101320 91
2008-05-23 11:53 51°30.45 2°55.439 4.3 238 14.5 101320 91
2008-05-23 11:54 51°30.234 2°55.411 5.2 32 14.6 101320 91
2008-05-23 11:55 51°30.023 2°55.381 4.2 236 14.6 101320 91
2008-05-23 11:56 51°29.804 2°55.355 3.6 33 14.6 101320 91
2008-05-23 11:57 51°29.583 2°55.316 3.9 38 14.6 101310 91
2008-05-23 11:58 51°29.36 2°55.277 4.1 39 14.6 101310 91
2008-05-23 11:59 51°29.137 2°55.235 4.3 316 14.7 101320 91
2008-05-23 12:00 51°28.916 2°55.172 4.6 32 14.7 101320 91
2008-05-23 12:01 51°28.695 2°55.115 4.4 317 14.7 101320 90
2008-05-23 12:02 51°28.473 2°55.056 4.6 320 14.7 101320 90
2008-05-23 12:03 51°28.252 2°55.011 4.6 38 14.8 101310 90
2008-05-23 12:04 51°28.032 2°54.953 3 319 14.8 101310 90
2008-05-23 12:05 51°27.815 2°54.887 3.7 320 14.9 101310 90
2008-05-23 12:06 51°27.599 2°54.832 3 319 14.9 101310 90
2008-05-23 12:07 51°27.384 2°54.778 2.9 40 15 101300 89
2008-05-23 12:08 51°27.169 2°54.706 2.8 316 15 101310 89
2008-05-23 12:09 51°26.953 2°54.65 3.3 38 15 101300 89
2008-05-23 12:10 51°26.735 2°54.596 3.9 320 15 101300 88
2008-05-23 12:11 51°26.516 2°54.546 2.7 34 15.1 101300 88
2008-05-23 12:12 51°26.299 2°54.493 3.9 40 15.1 101300 88
2008-05-23 12:13 51°26.082 2°54.44 3.8 31 15.1 101300 88
2008-05-23 12:14 51°25.863 2°54.401 4.2 33 15.1 101290 88
2008-05-23 12:15 51°25.645 2°54.339 3 36 15.1 101290 88
2008-05-23 12:16 51°25.426 2°54.281 3.1 37 15.1 101290 87
2008-05-23 12:17 51°25.208 2°54.224 3 240 15.1 101290 87
2008-05-23 12:18 51°24.991 2°54.165 3 232 15.1 101290 87
2008-05-23 12:19 51°24.776 2°54.098 3.4 38 15.1 101290 87
2008-05-23 12:20 51°24.56 2°54.05 4.4 33 15.1 101280 87
2008-05-23 12:21 51°24.344 2°54 3.3 234 15.1 101280 87
2008-05-23 12:22 51°24.133 2°53.921 3.1 32 15.1 101280 87
2008-05-23 12:23 51°23.923 2°53.848 3.5 33 15.1 101280 87
2008-05-23 12:24 51°23.714 2°53.806 3.4 242 15.2 101270 87
2008-05-23 12:25 51°23.506 2°53.77 3.1 238 15.2 101270 87
2008-05-23 12:26 51°23.298 2°53.73 3.6 36 15.2 101270 87
2008-05-23 12:27 51°23.09 2°53.693 4.1 31 15.2 101270 86
2008-05-23 12:28 51°22.883 2°53.661 3.1 240 15.2 101260 86
2008-05-23 12:29 51°22.677 2°53.608 3.6 239 15.3 101270 86
2008-05-23 12:30 51°22.47 2°53.568 4.2 242 15.3 101260 86
2008-05-23 12:31 51°22.264 2°53.527 4.3 243 15.3 101260 86
2008-05-23 12:32 51°22.057 2°53.476 2.2 237 15.3 101260 86
2008-05-23 12:33 51°21.854 2°53.416 2.9 241 15.3 101260 86
2008-05-23 12:34 51°21.651 2°53.354 3.8 246 15.3 101260 86
2008-05-23 12:35 51°21.445 2°53.298 2.6 247 15.3 101260 86
2008-05-23 12:36 51°21.24 2°53.24 3.8 245 15.4 101250 86
2008-05-23 12:37 51°21.036 2°53.186 3.1 245 15.5 101250 86
2008-05-23 12:38 51°20.836 2°53.106 2.4 245 15.5 101250 86
2008-05-23 12:39 51°20.635 2°53.037 2.7 245 15.6 101250 85
2008-05-23 12:40 51°20.435 2°52.959 2.7 240 15.7 101250 85
2008-05-23 12:41 51°20.234 2°52.897 2.3 242 15.7 101250 85
2008-05-23 12:42 51°20.032 2°52.833 3.3 244 15.7 101250 84
2008-05-23 12:43 51°19.833 2°52.767 3.3 250 15.8 101250 84
2008-05-23 12:44 51°19.632 2°52.703 2.5 246 15.8 101250 83
2008-05-23 12:45 51°19.433 2°52.632 3.6 245 15.8 101250 83
2008-05-23 12:46 51°19.232 2°52.57 3.3 241 15.9 101240 83
2008-05-23 12:47 51°19.032 2°52.492 2.6 238 15.9 101250 83
2008-05-23 12:48 51°18.833 2°52.416 2.4 245 15.9 101240 82
2008-05-23 12:49 51°18.63 2°52.39 4.9 245 15.9 101240 82
2008-05-23 12:50 51°18.425 2°52.395 4.5 244 15.9 101240 82
2008-05-23 12:51 51°18.221 2°52.391 3.4 243 15.9 101230 82
2008-05-23 12:52 51°18.018 2°52.403 4.4 242 15.9 101230 82
2008-05-23 12:53 51°17.817 2°52.412 3.5 241 15.9 101230 82
2008-05-23 12:54 51°17.617 2°52.419 4.8 248 15.9 101230 82
2008-05-23 12:55 51°17.418 2°52.409 3.4 243 15.9 101230 82
2008-05-23 12:56 51°17.22 2°52.424 3.9 242 16 101230 82
2008-05-23 12:57 51°17.024 2°52.497 6.1 240 16 101220 82
2008-05-23 12:58 51°16.83 2°52.585 5.7 244 16 101220 82
2008-05-23 12:59 51°16.636 2°52.687 7 240 16 101220 82
2008-05-23 13:00 51°16.446 2°52.813 8.3 240 16 101210 82
2008-05-23 13:01 51°16.262 2°52.958 7.9 239 16.1 101210 82
2008-05-23 13:02 51°16.078 2°53.101 6.6 243 16.1 101210 82
2008-05-23 13:03 51°15.891 2°53.233 6.4 244 16.1 101210 82
2008-05-23 13:04 51°15.705 2°53.36 8.1 242 16.1 101210 81
2008-05-23 13:05 51°15.522 2°53.496 6.4 246 16.1 101210 81
2008-05-23 13:06 51°15.336 2°53.624 6.7 243 16.2 101210 81
2008-05-23 13:07 51°15.152 2°53.762 7.5 246 16.2 101200 81
2008-05-23 13:08 51°14.98 2°53.928 8.4 243 16.2 101200 81
2008-05-23 13:09 51°14.815 2°54.122 7.5 241 16.2 101190 81
2008-05-23 13:10 51°14.679 2°54.375 10.5 238 16.2 101190 80
2008-05-23 13:11 51°14.557 2°54.654 9 34 16.3 101190 80
2008-05-23 13:12 51°14.434 2°54.93 10.5 237 16.3 101190 79
2008-05-23 13:13 51°14.301 2°55.187 8.8 33 16.4 101190 78
2008-05-23 13:14 51°14.176 2°55.368 5.4 32 16.5 101200 78
2008-05-23 13:15 51°14.09 2°55.452 3.1 249 16.5 101190 76
2008-05-23 13:16 51°14.033 2°55.511 6.4 36 16.7 101190 75
2008-05-23 13:17 51°13.939 2°55.577 7.5 38 17 101180 67
2008-05-23 13:18 51°13.853 2°55.625 5.2 232 17.5 101180 60
2008-05-23 13:19 51°13.78 2°55.678 8.5 34 18 101190 55